sensor_id;sensor_type;location;lat;lon;timestamp;pressure;altitude;pressure_sealevel;temperature
71205;BMP180;58935;54.498;18.544;2023-05-10T00:02:07;101126.20;;;9.50
71205;BMP180;58935;54.498;18.544;2023-05-10T00:04:33;101126.40;;;9.50
71205;BMP180;58935;54.498;18.544;2023-05-10T00:06:58;101122.80;;;9.46
71205;BMP180;58935;54.498;18.544;2023-05-10T00:09:24;101123.80;;;9.40
71205;BMP180;58935;54.498;18.544;2023-05-10T00:11:52;101125.80;;;9.40
71205;BMP180;58935;54.498;18.544;2023-05-10T00:14:18;101124.80;;;9.40
71205;BMP180;58935;54.498;18.544;2023-05-10T00:16:46;101125.00;;;9.38
71205;BMP180;58935;54.498;18.544;2023-05-10T00:19:12;101122.60;;;9.30
71205;BMP180;58935;54.498;18.544;2023-05-10T00:21:37;101125.40;;;9.30
71205;BMP180;58935;54.498;18.544;2023-05-10T00:24:03;101124.80;;;9.30
71205;BMP180;58935;54.498;18.544;2023-05-10T00:26:29;101123.20;;;9.30
71205;BMP180;58935;54.498;18.544;2023-05-10T00:28:55;101123.60;;;9.30
71205;BMP180;58935;54.498;18.544;2023-05-10T00:31:22;101125.00;;;9.22
71205;BMP180;58935;54.498;18.544;2023-05-10T00:33:47;101126.20;;;9.24
71205;BMP180;58935;54.498;18.544;2023-05-10T00:36:13;101120.60;;;9.20
71205;BMP180;58935;54.498;18.544;2023-05-10T00:38:38;101117.60;;;9.20
71205;BMP180;58935;54.498;18.544;2023-05-10T00:41:06;101115.40;;;9.20
71205;BMP180;58935;54.498;18.544;2023-05-10T00:43:32;101121.80;;;9.20
71205;BMP180;58935;54.498;18.544;2023-05-10T00:45:57;101114.40;;;9.10
71205;BMP180;58935;54.498;18.544;2023-05-10T00:48:23;101112.80;;;9.10
71205;BMP180;58935;54.498;18.544;2023-05-10T00:50:49;101109.60;;;9.10
71205;BMP180;58935;54.498;18.544;2023-05-10T00:53:15;101113.80;;;9.06
71205;BMP180;58935;54.498;18.544;2023-05-10T00:55:41;101114.40;;;9.00
71205;BMP180;58935;54.498;18.544;2023-05-10T00:58:07;101111.40;;;9.00
71205;BMP180;58935;54.498;18.544;2023-05-10T01:00:33;101113.40;;;9.00
71205;BMP180;58935;54.498;18.544;2023-05-10T01:02:59;101106.80;;;9.00
71205;BMP180;58935;54.498;18.544;2023-05-10T01:05:25;101107.80;;;9.00
71205;BMP180;58935;54.498;18.544;2023-05-10T01:07:53;101104.00;;;8.96
71205;BMP180;58935;54.498;18.544;2023-05-10T01:10:18;101099.00;;;8.90
71205;BMP180;58935;54.498;18.544;2023-05-10T01:12:46;101103.60;;;8.90
71205;BMP180;58935;54.498;18.544;2023-05-10T01:15:15;101099.60;;;8.90
71205;BMP180;58935;54.498;18.544;2023-05-10T01:17:44;101103.40;;;8.90
71205;BMP180;58935;54.498;18.544;2023-05-10T01:20:11;101104.60;;;8.90
71205;BMP180;58935;54.498;18.544;2023-05-10T01:34:09;101090.80;;;8.80
71205;BMP180;58935;54.498;18.544;2023-05-10T01:36:50;101089.60;;;8.80
71205;BMP180;58935;54.498;18.544;2023-05-10T01:39:28;101086.20;;;8.80
71205;BMP180;58935;54.498;18.544;2023-05-10T01:42:08;101085.00;;;8.74
71205;BMP180;58935;54.498;18.544;2023-05-10T01:44:46;101084.00;;;8.70
71205;BMP180;58935;54.498;18.544;2023-05-10T01:47:24;101081.00;;;8.70
71205;BMP180;58935;54.498;18.544;2023-05-10T01:49:55;101081.20;;;8.70
71205;BMP180;58935;54.498;18.544;2023-05-10T01:52:37;101081.20;;;8.70
71205;BMP180;58935;54.498;18.544;2023-05-10T01:55:10;101082.20;;;8.68
71205;BMP180;58935;54.498;18.544;2023-05-10T01:57:40;101083.40;;;8.60
71205;BMP180;58935;54.498;18.544;2023-05-10T02:00:09;101085.00;;;8.60
71205;BMP180;58935;54.498;18.544;2023-05-10T02:02:39;101086.00;;;8.60
71205;BMP180;58935;54.498;18.544;2023-05-10T02:05:08;101085.40;;;8.52
71205;BMP180;58935;54.498;18.544;2023-05-10T02:07:36;101085.60;;;8.50
71205;BMP180;58935;54.498;18.544;2023-05-10T02:10:05;101084.60;;;8.50
71205;BMP180;58935;54.498;18.544;2023-05-10T02:12:42;101086.40;;;8.40
71205;BMP180;58935;54.498;18.544;2023-05-10T02:15:11;101086.80;;;8.40
71205;BMP180;58935;54.498;18.544;2023-05-10T02:17:39;101086.20;;;8.40
71205;BMP180;58935;54.498;18.544;2023-05-10T02:20:08;101087.40;;;8.40
71205;BMP180;58935;54.498;18.544;2023-05-10T02:22:36;101086.40;;;8.40
71205;BMP180;58935;54.498;18.544;2023-05-10T02:25:04;101088.00;;;8.40
71205;BMP180;58935;54.498;18.544;2023-05-10T02:27:31;101086.00;;;8.38
71205;BMP180;58935;54.498;18.544;2023-05-10T02:29:58;101083.20;;;8.30
71205;BMP180;58935;54.498;18.544;2023-05-10T02:32:27;101081.00;;;8.30
71205;BMP180;58935;54.498;18.544;2023-05-10T02:34:55;101078.80;;;8.30
71205;BMP180;58935;54.498;18.544;2023-05-10T02:37:22;101074.00;;;8.30
71205;BMP180;58935;54.498;18.544;2023-05-10T02:39:49;101079.00;;;8.20
71205;BMP180;58935;54.498;18.544;2023-05-10T02:42:19;101080.80;;;8.20
71205;BMP180;58935;54.498;18.544;2023-05-10T02:44:51;101080.00;;;8.20
71205;BMP180;58935;54.498;18.544;2023-05-10T02:47:18;101083.40;;;8.20
71205;BMP180;58935;54.498;18.544;2023-05-10T02:49:45;101080.40;;;8.20
71205;BMP180;58935;54.498;18.544;2023-05-10T02:52:16;101083.00;;;8.20
71205;BMP180;58935;54.498;18.544;2023-05-10T02:54:46;101080.60;;;8.16
71205;BMP180;58935;54.498;18.544;2023-05-10T02:57:17;101085.60;;;8.10
71205;BMP180;58935;54.498;18.544;2023-05-10T02:59:47;101086.60;;;8.10
71205;BMP180;58935;54.498;18.544;2023-05-10T03:02:13;101082.60;;;8.10
71205;BMP180;58935;54.498;18.544;2023-05-10T03:04:39;101086.00;;;8.10
71205;BMP180;58935;54.498;18.544;2023-05-10T03:07:07;101082.40;;;8.10
71205;BMP180;58935;54.498;18.544;2023-05-10T03:09:33;101088.60;;;8.00
71205;BMP180;58935;54.498;18.544;2023-05-10T03:12:07;101091.00;;;8.00
71205;BMP180;58935;54.498;18.544;2023-05-10T03:14:55;101090.40;;;8.00
71205;BMP180;58935;54.498;18.544;2023-05-10T03:17:30;101089.60;;;8.00
71205;BMP180;58935;54.498;18.544;2023-05-10T03:19:58;101086.00;;;7.94
71205;BMP180;58935;54.498;18.544;2023-05-10T03:22:36;101085.80;;;7.96
71205;BMP180;58935;54.498;18.544;2023-05-10T03:25:06;101085.40;;;7.98
71205;BMP180;58935;54.498;18.544;2023-05-10T03:27:36;101089.60;;;8.00
71205;BMP180;58935;54.498;18.544;2023-05-10T03:30:05;101089.40;;;8.00
71205;BMP180;58935;54.498;18.544;2023-05-10T03:32:31;101089.80;;;8.00
71205;BMP180;58935;54.498;18.544;2023-05-10T03:34:59;101087.60;;;8.00
71205;BMP180;58935;54.498;18.544;2023-05-10T03:37:24;101087.00;;;8.00
71205;BMP180;58935;54.498;18.544;2023-05-10T03:39:50;101088.00;;;8.00
71205;BMP180;58935;54.498;18.544;2023-05-10T03:42:15;101087.20;;;8.00
71205;BMP180;58935;54.498;18.544;2023-05-10T03:44:43;101085.40;;;8.00
71205;BMP180;58935;54.498;18.544;2023-05-10T03:47:08;101090.60;;;8.02
71205;BMP180;58935;54.498;18.544;2023-05-10T03:49:34;101087.00;;;8.10
71205;BMP180;58935;54.498;18.544;2023-05-10T03:51:59;101088.60;;;8.10
71205;BMP180;58935;54.498;18.544;2023-05-10T03:54:25;101086.00;;;8.10
71205;BMP180;58935;54.498;18.544;2023-05-10T03:56:50;101083.80;;;8.16
71205;BMP180;58935;54.498;18.544;2023-05-10T03:59:16;101081.00;;;8.20
71205;BMP180;58935;54.498;18.544;2023-05-10T04:01:41;101077.60;;;8.20
71205;BMP180;58935;54.498;18.544;2023-05-10T04:04:07;101077.60;;;8.26
71205;BMP180;58935;54.498;18.544;2023-05-10T04:06:32;101079.40;;;8.30
71205;BMP180;58935;54.498;18.544;2023-05-10T04:08:58;101084.00;;;8.30
71205;BMP180;58935;54.498;18.544;2023-05-10T04:11:25;101087.40;;;8.40
71205;BMP180;58935;54.498;18.544;2023-05-10T04:13:51;101085.60;;;8.40
71205;BMP180;58935;54.498;18.544;2023-05-10T04:16:16;101084.80;;;8.50
71205;BMP180;58935;54.498;18.544;2023-05-10T04:18:42;101084.60;;;8.50
71205;BMP180;58935;54.498;18.544;2023-05-10T04:21:13;101079.00;;;8.60
71205;BMP180;58935;54.498;18.544;2023-05-10T04:23:40;101082.40;;;8.64
71205;BMP180;58935;54.498;18.544;2023-05-10T04:26:06;101073.80;;;8.70
71205;BMP180;58935;54.498;18.544;2023-05-10T04:28:32;101077.40;;;8.80
71205;BMP180;58935;54.498;18.544;2023-05-10T04:31:05;101077.80;;;8.82
71205;BMP180;58935;54.498;18.544;2023-05-10T04:33:31;101078.00;;;8.90
71205;BMP180;58935;54.498;18.544;2023-05-10T04:36:18;101080.20;;;9.00
71205;BMP180;58935;54.498;18.544;2023-05-10T04:38:44;101081.80;;;9.00
71205;BMP180;58935;54.498;18.544;2023-05-10T04:41:10;101079.40;;;9.10
71205;BMP180;58935;54.498;18.544;2023-05-10T04:43:37;101081.60;;;9.20
71205;BMP180;58935;54.498;18.544;2023-05-10T04:46:05;101082.80;;;9.20
71205;BMP180;58935;54.498;18.544;2023-05-10T04:48:30;101079.60;;;9.30
71205;BMP180;58935;54.498;18.544;2023-05-10T04:50:56;101079.40;;;9.40
71205;BMP180;58935;54.498;18.544;2023-05-10T04:53:22;101082.00;;;9.50
71205;BMP180;58935;54.498;18.544;2023-05-10T04:55:50;101075.80;;;9.54
71205;BMP180;58935;54.498;18.544;2023-05-10T04:58:15;101088.20;;;9.60
71205;BMP180;58935;54.498;18.544;2023-05-10T05:00:41;101085.40;;;9.70
71205;BMP180;58935;54.498;18.544;2023-05-10T05:03:07;101084.00;;;9.80
71205;BMP180;58935;54.498;18.544;2023-05-10T05:05:33;101085.80;;;9.80
71205;BMP180;58935;54.498;18.544;2023-05-10T05:07:59;101082.00;;;9.90
71205;BMP180;58935;54.498;18.544;2023-05-10T05:10:24;101075.80;;;9.90
71205;BMP180;58935;54.498;18.544;2023-05-10T05:12:50;101077.80;;;10.00
71205;BMP180;58935;54.498;18.544;2023-05-10T05:15:15;101078.80;;;10.00
71205;BMP180;58935;54.498;18.544;2023-05-10T05:17:42;101077.60;;;10.08
71205;BMP180;58935;54.498;18.544;2023-05-10T05:20:09;101082.00;;;10.10
71205;BMP180;58935;54.498;18.544;2023-05-10T05:22:36;101083.60;;;10.22
71205;BMP180;58935;54.498;18.544;2023-05-10T05:25:05;101081.00;;;10.30
71205;BMP180;58935;54.498;18.544;2023-05-10T05:27:31;101081.40;;;10.40
71205;BMP180;58935;54.498;18.544;2023-05-10T05:29:57;101079.40;;;10.48
71205;BMP180;58935;54.498;18.544;2023-05-10T05:32:24;101078.40;;;10.50
71205;BMP180;58935;54.498;18.544;2023-05-10T05:34:50;101074.80;;;10.60
71205;BMP180;58935;54.498;18.544;2023-05-10T05:37:19;101079.40;;;10.60
71205;BMP180;58935;54.498;18.544;2023-05-10T05:39:46;101076.20;;;10.68
71205;BMP180;58935;54.498;18.544;2023-05-10T05:42:13;101079.80;;;10.70
71205;BMP180;58935;54.498;18.544;2023-05-10T05:44:39;101074.20;;;10.70
71205;BMP180;58935;54.498;18.544;2023-05-10T05:47:05;101068.20;;;10.80
71205;BMP180;58935;54.498;18.544;2023-05-10T05:49:32;101072.20;;;10.80
71205;BMP180;58935;54.498;18.544;2023-05-10T05:52:00;101072.60;;;10.90
71205;BMP180;58935;54.498;18.544;2023-05-10T05:54:27;101071.80;;;10.90
71205;BMP180;58935;54.498;18.544;2023-05-10T05:56:55;101075.40;;;10.90
71205;BMP180;58935;54.498;18.544;2023-05-10T05:59:21;101066.40;;;11.00
71205;BMP180;58935;54.498;18.544;2023-05-10T06:01:47;101069.40;;;11.00
71205;BMP180;58935;54.498;18.544;2023-05-10T06:04:13;101066.60;;;11.04
71205;BMP180;58935;54.498;18.544;2023-05-10T06:06:38;101066.60;;;11.10
71205;BMP180;58935;54.498;18.544;2023-05-10T06:09:09;101065.80;;;11.10
71205;BMP180;58935;54.498;18.544;2023-05-10T06:11:35;101071.00;;;11.20
71205;BMP180;58935;54.498;18.544;2023-05-10T06:14:04;101066.40;;;11.20
71205;BMP180;58935;54.498;18.544;2023-05-10T06:16:30;101070.40;;;11.28
71205;BMP180;58935;54.498;18.544;2023-05-10T06:18:56;101071.40;;;11.30
71205;BMP180;58935;54.498;18.544;2023-05-10T06:21:22;101068.00;;;11.32
71205;BMP180;58935;54.498;18.544;2023-05-10T06:23:47;101069.20;;;11.40
71205;BMP180;58935;54.498;18.544;2023-05-10T06:26:13;101070.20;;;11.50
71205;BMP180;58935;54.498;18.544;2023-05-10T06:28:41;101070.80;;;11.50
71205;BMP180;58935;54.498;18.544;2023-05-10T06:31:07;101073.20;;;11.60
71205;BMP180;58935;54.498;18.544;2023-05-10T06:33:33;101072.00;;;11.60
71205;BMP180;58935;54.498;18.544;2023-05-10T06:35:59;101069.80;;;11.70
71205;BMP180;58935;54.498;18.544;2023-05-10T06:38:27;101072.60;;;11.70
71205;BMP180;58935;54.498;18.544;2023-05-10T06:40:52;101072.00;;;11.80
71205;BMP180;58935;54.498;18.544;2023-05-10T06:43:18;101070.80;;;11.80
71205;BMP180;58935;54.498;18.544;2023-05-10T06:45:43;101070.40;;;11.90
71205;BMP180;58935;54.498;18.544;2023-05-10T06:48:09;101068.40;;;12.00
71205;BMP180;58935;54.498;18.544;2023-05-10T06:50:35;101068.20;;;12.06
71205;BMP180;58935;54.498;18.544;2023-05-10T06:53:01;101071.00;;;12.10
71205;BMP180;58935;54.498;18.544;2023-05-10T06:55:29;101070.60;;;12.20
71205;BMP180;58935;54.498;18.544;2023-05-10T06:57:54;101065.60;;;12.20
71205;BMP180;58935;54.498;18.544;2023-05-10T07:00:20;101065.20;;;12.30
71205;BMP180;58935;54.498;18.544;2023-05-10T07:02:46;101064.00;;;12.30
71205;BMP180;58935;54.498;18.544;2023-05-10T07:05:13;101066.40;;;12.36
71205;BMP180;58935;54.498;18.544;2023-05-10T07:07:39;101072.80;;;12.40
71205;BMP180;58935;54.498;18.544;2023-05-10T07:10:05;101071.20;;;12.50
71205;BMP180;58935;54.498;18.544;2023-05-10T07:12:32;101076.60;;;12.54
71205;BMP180;58935;54.498;18.544;2023-05-10T07:14:57;101074.00;;;12.60
71205;BMP180;58935;54.498;18.544;2023-05-10T07:17:23;101071.40;;;12.62
71205;BMP180;58935;54.498;18.544;2023-05-10T07:19:48;101073.80;;;12.70
71205;BMP180;58935;54.498;18.544;2023-05-10T07:22:15;101069.00;;;12.74
71205;BMP180;58935;54.498;18.544;2023-05-10T07:24:42;101068.00;;;12.80
71205;BMP180;58935;54.498;18.544;2023-05-10T07:27:08;101070.40;;;12.90
71205;BMP180;58935;54.498;18.544;2023-05-10T07:29:34;101073.60;;;12.90
71205;BMP180;58935;54.498;18.544;2023-05-10T07:32:00;101066.60;;;13.00
71205;BMP180;58935;54.498;18.544;2023-05-10T07:34:26;101073.20;;;13.00
71205;BMP180;58935;54.498;18.544;2023-05-10T07:36:53;101073.20;;;13.08
71205;BMP180;58935;54.498;18.544;2023-05-10T07:39:18;101066.40;;;13.10
71205;BMP180;58935;54.498;18.544;2023-05-10T07:41:45;101070.40;;;13.20
71205;BMP180;58935;54.498;18.544;2023-05-10T07:44:11;101065.80;;;13.30
71205;BMP180;58935;54.498;18.544;2023-05-10T07:46:36;101067.40;;;13.40
71205;BMP180;58935;54.498;18.544;2023-05-10T07:49:08;101062.40;;;13.50
71205;BMP180;58935;54.498;18.544;2023-05-10T07:54:12;101063.60;;;13.60
71205;BMP180;58935;54.498;18.544;2023-05-10T08:07:11;101068.60;;;13.90
71205;BMP180;58935;54.498;18.544;2023-05-10T08:09:40;101062.00;;;13.98
71205;BMP180;58935;54.498;18.544;2023-05-10T08:12:12;101067.00;;;14.00
71205;BMP180;58935;54.498;18.544;2023-05-10T08:14:48;101063.20;;;14.10
71205;BMP180;58935;54.498;18.544;2023-05-10T08:17:16;101064.60;;;14.16
71205;BMP180;58935;54.498;18.544;2023-05-10T08:19:45;101066.00;;;14.24
71205;BMP180;58935;54.498;18.544;2023-05-10T08:24:48;101051.60;;;14.40
71205;BMP180;58935;54.498;18.544;2023-05-10T08:27:16;101052.80;;;14.50
71205;BMP180;58935;54.498;18.544;2023-05-10T08:29:42;101049.60;;;14.60
71205;BMP180;58935;54.498;18.544;2023-05-10T08:32:12;101046.00;;;14.70
71205;BMP180;58935;54.498;18.544;2023-05-10T08:34:37;101046.60;;;14.82
71205;BMP180;58935;54.498;18.544;2023-05-10T08:37:07;101039.80;;;14.90
71205;BMP180;58935;54.498;18.544;2023-05-10T08:39:35;101044.20;;;15.00
71205;BMP180;58935;54.498;18.544;2023-05-10T08:42:04;101044.00;;;15.10
71205;BMP180;58935;54.498;18.544;2023-05-10T08:44:32;101043.80;;;15.20
71205;BMP180;58935;54.498;18.544;2023-05-10T08:47:05;101044.40;;;15.20
71205;BMP180;58935;54.498;18.544;2023-05-10T08:49:32;101041.80;;;15.26
71205;BMP180;58935;54.498;18.544;2023-05-10T08:52:03;101032.60;;;15.24
71205;BMP180;58935;54.498;18.544;2023-05-10T08:54:31;101031.80;;;15.30
71205;BMP180;58935;54.498;18.544;2023-05-10T08:56:57;101036.20;;;15.32
71205;BMP180;58935;54.498;18.544;2023-05-10T08:59:22;101037.20;;;15.40
71205;BMP180;58935;54.498;18.544;2023-05-10T09:01:49;101030.20;;;15.40
71205;BMP180;58935;54.498;18.544;2023-05-10T09:04:16;101031.20;;;15.50
71205;BMP180;58935;54.498;18.544;2023-05-10T09:06:44;101035.00;;;15.60
71205;BMP180;58935;54.498;18.544;2023-05-10T09:09:14;101024.40;;;15.66
71205;BMP180;58935;54.498;18.544;2023-05-10T09:11:41;101026.00;;;15.70
71205;BMP180;58935;54.498;18.544;2023-05-10T09:14:08;101024.20;;;15.80
71205;BMP180;58935;54.498;18.544;2023-05-10T09:16:34;101023.80;;;15.90
71205;BMP180;58935;54.498;18.544;2023-05-10T09:19:02;101030.40;;;15.90
71205;BMP180;58935;54.498;18.544;2023-05-10T09:21:28;101026.40;;;15.94
71205;BMP180;58935;54.498;18.544;2023-05-10T09:23:56;101026.60;;;16.00
71205;BMP180;58935;54.498;18.544;2023-05-10T09:26:23;101025.80;;;16.00
71205;BMP180;58935;54.498;18.544;2023-05-10T09:28:57;101025.60;;;16.10
71205;BMP180;58935;54.498;18.544;2023-05-10T09:31:24;101026.80;;;16.10
71205;BMP180;58935;54.498;18.544;2023-05-10T09:33:52;101019.60;;;16.14
71205;BMP180;58935;54.498;18.544;2023-05-10T09:36:20;101022.00;;;16.20
71205;BMP180;58935;54.498;18.544;2023-05-10T09:38:51;101015.80;;;16.20
71205;BMP180;58935;54.498;18.544;2023-05-10T09:41:22;101015.60;;;16.22
71205;BMP180;58935;54.498;18.544;2023-05-10T09:43:49;101017.40;;;16.30
71205;BMP180;58935;54.498;18.544;2023-05-10T09:46:15;101020.60;;;16.32
71205;BMP180;58935;54.498;18.544;2023-05-10T09:48:45;101023.60;;;16.40
71205;BMP180;58935;54.498;18.544;2023-05-10T09:51:25;101023.80;;;16.50
71205;BMP180;58935;54.498;18.544;2023-05-10T09:56:32;101015.00;;;16.60
71205;BMP180;58935;54.498;18.544;2023-05-10T09:59:02;101019.40;;;16.60
71205;BMP180;58935;54.498;18.544;2023-05-10T10:01:29;101008.00;;;16.70
71205;BMP180;58935;54.498;18.544;2023-05-10T10:03:55;101017.00;;;16.78
71205;BMP180;58935;54.498;18.544;2023-05-10T10:06:24;101009.20;;;16.80
71205;BMP180;58935;54.498;18.544;2023-05-10T10:08:51;101005.40;;;16.90
71205;BMP180;58935;54.498;18.544;2023-05-10T10:11:16;101004.60;;;16.90
71205;BMP180;58935;54.498;18.544;2023-05-10T10:13:42;101010.40;;;17.00
71205;BMP180;58935;54.498;18.544;2023-05-10T10:16:09;100995.80;;;17.00
71205;BMP180;58935;54.498;18.544;2023-05-10T10:18:36;100994.20;;;17.10
71205;BMP180;58935;54.498;18.544;2023-05-10T10:21:07;100995.40;;;17.20
71205;BMP180;58935;54.498;18.544;2023-05-10T10:23:35;100999.80;;;17.30
71205;BMP180;58935;54.498;18.544;2023-05-10T10:26:03;100994.00;;;17.30
71205;BMP180;58935;54.498;18.544;2023-05-10T10:31:32;100989.20;;;17.48
71205;BMP180;58935;54.498;18.544;2023-05-10T10:34:06;100994.40;;;17.50
71205;BMP180;58935;54.498;18.544;2023-05-10T10:36:40;100989.40;;;17.60
71205;BMP180;58935;54.498;18.544;2023-05-10T10:39:11;100987.00;;;17.60
71205;BMP180;58935;54.498;18.544;2023-05-10T10:41:50;100992.00;;;17.60
71205;BMP180;58935;54.498;18.544;2023-05-10T10:44:26;100988.80;;;17.70
71205;BMP180;58935;54.498;18.544;2023-05-10T10:49:30;100977.60;;;17.70
71205;BMP180;58935;54.498;18.544;2023-05-10T10:54:34;100967.20;;;17.80
71205;BMP180;58935;54.498;18.544;2023-05-10T10:57:10;100965.40;;;17.80
71205;BMP180;58935;54.498;18.544;2023-05-10T10:59:43;100971.80;;;17.90
71205;BMP180;58935;54.498;18.544;2023-05-10T11:02:10;100968.00;;;17.98
71205;BMP180;58935;54.498;18.544;2023-05-10T11:04:41;100967.00;;;18.10
71205;BMP180;58935;54.498;18.544;2023-05-10T11:07:16;100964.40;;;18.20
71205;BMP180;58935;54.498;18.544;2023-05-10T11:09:46;100963.20;;;18.20
71205;BMP180;58935;54.498;18.544;2023-05-10T11:12:15;100957.80;;;18.22
71205;BMP180;58935;54.498;18.544;2023-05-10T11:14:40;100961.40;;;18.30
71205;BMP180;58935;54.498;18.544;2023-05-10T11:20:06;100962.80;;;18.40
71205;BMP180;58935;54.498;18.544;2023-05-10T11:22:50;100958.60;;;18.50
71205;BMP180;58935;54.498;18.544;2023-05-10T11:25:19;100961.40;;;18.50
71205;BMP180;58935;54.498;18.544;2023-05-10T11:27:48;100963.20;;;18.50
71205;BMP180;58935;54.498;18.544;2023-05-10T11:30:14;100965.00;;;18.50
71205;BMP180;58935;54.498;18.544;2023-05-10T11:32:42;100964.40;;;18.60
71205;BMP180;58935;54.498;18.544;2023-05-10T11:35:11;100962.60;;;18.60
71205;BMP180;58935;54.498;18.544;2023-05-10T11:37:39;100962.20;;;18.70
71205;BMP180;58935;54.498;18.544;2023-05-10T11:40:12;100957.40;;;18.70
71205;BMP180;58935;54.498;18.544;2023-05-10T11:42:38;100954.20;;;18.80
71205;BMP180;58935;54.498;18.544;2023-05-10T11:45:07;100957.80;;;18.90
71205;BMP180;58935;54.498;18.544;2023-05-10T11:47:32;100956.80;;;19.02
71205;BMP180;58935;54.498;18.544;2023-05-10T11:50:05;100956.20;;;19.10
71205;BMP180;58935;54.498;18.544;2023-05-10T11:52:37;100959.00;;;19.20
71205;BMP180;58935;54.498;18.544;2023-05-10T11:55:03;100957.60;;;19.28
71205;BMP180;58935;54.498;18.544;2023-05-10T11:57:31;100962.60;;;19.30
71205;BMP180;58935;54.498;18.544;2023-05-10T11:59:57;100964.20;;;19.36
71205;BMP180;58935;54.498;18.544;2023-05-10T12:02:24;100961.80;;;19.40
71205;BMP180;58935;54.498;18.544;2023-05-10T12:04:52;100960.00;;;19.40
71205;BMP180;58935;54.498;18.544;2023-05-10T12:07:18;100963.40;;;19.40
71205;BMP180;58935;54.498;18.544;2023-05-10T12:09:44;100960.80;;;19.50
71205;BMP180;58935;54.498;18.544;2023-05-10T12:12:16;100954.80;;;19.60
71205;BMP180;58935;54.498;18.544;2023-05-10T12:14:42;100955.20;;;19.70
71205;BMP180;58935;54.498;18.544;2023-05-10T12:17:12;100952.80;;;19.80
71205;BMP180;58935;54.498;18.544;2023-05-10T12:19:42;100957.80;;;19.80
71205;BMP180;58935;54.498;18.544;2023-05-10T12:22:11;100950.00;;;19.80
71205;BMP180;58935;54.498;18.544;2023-05-10T12:24:39;100949.40;;;19.80
71205;BMP180;58935;54.498;18.544;2023-05-10T12:27:05;100956.60;;;19.80
71205;BMP180;58935;54.498;18.544;2023-05-10T12:29:33;100947.60;;;19.80
71205;BMP180;58935;54.498;18.544;2023-05-10T12:31:59;100939.40;;;19.88
71205;BMP180;58935;54.498;18.544;2023-05-10T12:34:34;100940.20;;;19.90
71205;BMP180;58935;54.498;18.544;2023-05-10T12:37:02;100942.80;;;20.00
71205;BMP180;58935;54.498;18.544;2023-05-10T12:42:03;100940.60;;;20.20
71205;BMP180;58935;54.498;18.544;2023-05-10T12:44:28;100941.20;;;20.30
71205;BMP180;58935;54.498;18.544;2023-05-10T12:46:56;100947.40;;;20.40
71205;BMP180;58935;54.498;18.544;2023-05-10T12:49:22;100943.00;;;20.48
71205;BMP180;58935;54.498;18.544;2023-05-10T12:51:47;100944.20;;;20.50
71205;BMP180;58935;54.498;18.544;2023-05-10T12:54:13;100938.40;;;20.60
71205;BMP180;58935;54.498;18.544;2023-05-10T12:56:38;100933.20;;;20.60
71205;BMP180;58935;54.498;18.544;2023-05-10T12:59:06;100937.40;;;20.60
71205;BMP180;58935;54.498;18.544;2023-05-10T13:01:31;100926.40;;;20.60
71205;BMP180;58935;54.498;18.544;2023-05-10T13:03:59;100923.20;;;20.60
71205;BMP180;58935;54.498;18.544;2023-05-10T13:06:25;100933.00;;;20.58
71205;BMP180;58935;54.498;18.544;2023-05-10T13:08:51;100937.60;;;20.50
71205;BMP180;58935;54.498;18.544;2023-05-10T13:11:17;100935.60;;;20.56
71205;BMP180;58935;54.498;18.544;2023-05-10T13:13:45;100932.80;;;20.52
71205;BMP180;58935;54.498;18.544;2023-05-10T13:16:10;100930.40;;;20.60
71205;BMP180;58935;54.498;18.544;2023-05-10T13:18:36;100932.80;;;20.70
71205;BMP180;58935;54.498;18.544;2023-05-10T13:21:01;100926.20;;;20.76
71205;BMP180;58935;54.498;18.544;2023-05-10T13:23:31;100924.60;;;20.80
71205;BMP180;58935;54.498;18.544;2023-05-10T13:25:56;100921.00;;;20.82
71205;BMP180;58935;54.498;18.544;2023-05-10T13:28:22;100924.20;;;20.80
71205;BMP180;58935;54.498;18.544;2023-05-10T13:30:47;100925.80;;;20.84
71205;BMP180;58935;54.498;18.544;2023-05-10T13:33:12;100922.40;;;20.90
71205;BMP180;58935;54.498;18.544;2023-05-10T13:35:38;100922.40;;;20.98
71205;BMP180;58935;54.498;18.544;2023-05-10T13:38:03;100924.80;;;21.00
71205;BMP180;58935;54.498;18.544;2023-05-10T13:40:31;100916.60;;;20.98
71205;BMP180;58935;54.498;18.544;2023-05-10T13:42:57;100916.60;;;20.90
71205;BMP180;58935;54.498;18.544;2023-05-10T13:45:22;100918.20;;;20.98
71205;BMP180;58935;54.498;18.544;2023-05-10T13:47:48;100915.60;;;21.00
71205;BMP180;58935;54.498;18.544;2023-05-10T13:50:13;100917.60;;;21.10
71205;BMP180;58935;54.498;18.544;2023-05-10T13:52:39;100920.40;;;21.20
71205;BMP180;58935;54.498;18.544;2023-05-10T13:55:05;100917.00;;;21.20
71205;BMP180;58935;54.498;18.544;2023-05-10T13:57:31;100915.60;;;21.20
71205;BMP180;58935;54.498;18.544;2023-05-10T13:59:57;100913.40;;;21.20
71205;BMP180;58935;54.498;18.544;2023-05-10T14:02:23;100917.20;;;21.10
71205;BMP180;58935;54.498;18.544;2023-05-10T14:04:48;100915.20;;;21.10
71205;BMP180;58935;54.498;18.544;2023-05-10T14:07:14;100905.00;;;21.06
71205;BMP180;58935;54.498;18.544;2023-05-10T14:09:40;100903.40;;;21.02
71205;BMP180;58935;54.498;18.544;2023-05-10T14:12:08;100910.60;;;21.10
71205;BMP180;58935;54.498;18.544;2023-05-10T14:14:33;100906.80;;;21.10
71205;BMP180;58935;54.498;18.544;2023-05-10T14:16:59;100904.00;;;21.10
71205;BMP180;58935;54.498;18.544;2023-05-10T14:19:25;100902.80;;;21.10
71205;BMP180;58935;54.498;18.544;2023-05-10T14:21:52;100899.80;;;21.00
71205;BMP180;58935;54.498;18.544;2023-05-10T14:24:17;100896.40;;;21.02
71205;BMP180;58935;54.498;18.544;2023-05-10T14:26:43;100896.00;;;21.10
71205;BMP180;58935;54.498;18.544;2023-05-10T14:29:08;100888.80;;;21.00
71205;BMP180;58935;54.498;18.544;2023-05-10T14:31:34;100881.00;;;20.92
71205;BMP180;58935;54.498;18.544;2023-05-10T14:34:00;100879.40;;;20.90
71205;BMP180;58935;54.498;18.544;2023-05-10T14:36:25;100876.60;;;20.90